Time;durP1;ratioP1;P1;durP2;ratioP2;P2;SDS_P1;SDS_P2;PMS_P1;PMS_P2;Temp;Humidity;BMP_temperature;BMP_pressure;BME280_temperature;BME280_humidity;BME280_pressure;Samples;Min_cycle;Max_cycle;Signal;HPM_P1;HPM_P2
2021/12/01 00:00:51;;;;;;;28.90;14.40;;;1.70;72.60;;;;;;5058313;28;20029;-35
2021/12/01 00:03:17;;;;;;;26.15;14.00;;;1.60;72.70;;;;;;5058224;28;20493;-45
2021/12/01 00:05:43;;;;;;;26.70;12.80;;;1.60;72.70;;;;;;5058025;28;20067;-44
2021/12/01 00:08:09;;;;;;;24.00;12.13;;;1.60;72.90;;;;;;5058253;28;20028;-35
2021/12/01 00:10:37;;;;;;;19.88;11.63;;;1.50;73.00;;;;;;5057774;28;20041;-33
2021/12/01 00:13:08;;;;;;;26.77;11.48;;;1.50;73.10;;;;;;5057962;28;20036;-36
2021/12/01 00:15:34;;;;;;;24.23;11.60;;;1.50;73.30;;;;;;5058590;28;20032;-39
2021/12/01 00:18:01;;;;;;;17.70;10.02;;;1.50;73.40;;;;;;5057693;28;20022;-33
2021/12/01 00:20:26;;;;;;;20.83;10.52;;;1.40;73.60;;;;;;5057837;28;20037;-45
2021/12/01 00:22:52;;;;;;;19.15;10.15;;;1.40;73.70;;;;;;5058196;28;20036;-36
2021/12/01 00:25:24;;;;;;;17.40;10.45;;;1.40;73.90;;;;;;5057655;28;20114;-33
2021/12/01 00:27:51;;;;;;;19.48;9.98;;;1.50;74.10;;;;;;5057469;28;20040;-45
2021/12/01 00:30:17;;;;;;;19.05;9.50;;;1.50;74.30;;;;;;5058121;28;20286;-32
2021/12/01 00:32:43;;;;;;;14.65;9.02;;;1.50;74.30;;;;;;5057226;28;20040;-45
2021/12/01 00:35:09;;;;;;;17.27;8.73;;;1.50;74.40;;;;;;5057532;28;20033;-33
2021/12/01 00:37:36;;;;;;;20.88;10.52;;;1.60;74.50;;;;;;5057362;28;20091;-34
2021/12/01 00:40:05;;;;;;;17.42;10.07;;;1.60;74.60;;;;;;5057930;28;20036;-32
2021/12/01 00:42:31;;;;;;;16.50;8.70;;;1.60;74.60;;;;;;5057244;28;20029;-34
2021/12/01 00:45:00;;;;;;;17.67;9.55;;;1.60;74.60;;;;;;5057787;28;20031;-32
2021/12/01 00:47:49;;;;;;;19.98;9.35;;;1.60;74.60;;;;;;5056871;28;20025;-32
2021/12/01 00:50:31;;;;;;;15.40;8.70;;;1.60;74.60;;;;;;5057674;28;20037;-33
2021/12/01 00:53:04;;;;;;;14.13;7.93;;;1.70;74.70;;;;;;5057376;28;20306;-32
2021/12/01 00:55:30;;;;;;;14.00;7.85;;;1.70;74.70;;;;;;5057651;28;20025;-32
2021/12/01 00:57:56;;;;;;;15.10;9.23;;;1.70;74.70;;;;;;5057150;28;20341;-33
2021/12/01 01:00:25;;;;;;;14.35;8.20;;;1.70;74.60;;;;;;5056118;28;20037;-37
2021/12/01 01:02:51;;;;;;;13.93;8.35;;;1.70;74.60;;;;;;5057079;28;20325;-44
2021/12/01 01:05:17;;;;;;;13.43;7.88;;;1.80;74.70;;;;;;5057523;28;20032;-32
2021/12/01 01:07:43;;;;;;;12.65;7.72;;;1.80;74.60;;;;;;5056634;28;20037;-45
2021/12/01 01:10:29;;;;;;;18.17;9.00;;;1.80;74.70;;;;;;5056576;28;20086;-32
2021/12/01 01:18:30;;;;;;;14.80;8.65;;;1.80;74.60;;;;;;5056702;28;20043;-35
2021/12/01 01:20:57;;;;;;;14.27;8.27;;;1.80;74.60;;;;;;5056885;28;20060;-45
2021/12/01 01:23:24;;;;;;;12.05;7.72;;;1.80;74.60;;;;;;5056258;28;20420;-44
2021/12/01 01:25:50;;;;;;;14.85;7.97;;;1.90;74.80;;;;;;5056801;28;20091;-33
2021/12/01 01:28:16;;;;;;;12.70;8.13;;;1.90;74.70;;;;;;5056368;28;20029;-33
2021/12/01 01:30:41;;;;;;;14.43;8.82;;;1.90;74.60;;;;;;5056647;28;20065;-35
2021/12/01 01:33:07;;;;;;;16.60;8.50;;;1.90;74.50;;;;;;5055902;28;20037;-44
2021/12/01 01:35:33;;;;;;;15.73;8.30;;;1.90;74.60;;;;;;5056969;28;20029;-44
2021/12/01 01:37:59;;;;;;;14.18;8.60;;;1.90;75.20;;;;;;5056235;28;20060;-44
2021/12/01 01:40:25;;;;;;;15.63;8.82;;;1.90;74.70;;;;;;5056326;28;20366;-34
2021/12/01 01:42:50;;;;;;;15.98;8.77;;;1.90;74.80;;;;;;5056399;28;20028;-34
2021/12/01 01:45:17;;;;;;;15.13;8.23;;;1.90;74.80;;;;;;5056743;28;20341;-33
2021/12/01 01:48:05;;;;;;;17.67;8.15;;;1.90;74.80;;;;;;5055832;28;20044;-34
2021/12/01 01:50:36;;;;;;;17.67;8.27;;;1.90;74.90;;;;;;5056609;28;20036;-34
2021/12/01 01:53:12;;;;;;;13.65;8.05;;;1.90;74.90;;;;;;5056015;28;20041;-32
2021/12/01 01:55:46;;;;;;;15.20;7.47;;;1.90;74.90;;;;;;5056486;28;20025;-44
2021/12/01 01:58:14;;;;;;;15.00;8.77;;;1.90;75.00;;;;;;5055736;28;20041;-44
2021/12/01 02:01:20;;;;;;;15.05;8.00;;;1.90;74.90;;;;;;5056450;28;20029;-34
2021/12/01 02:03:37;;;;;;;13.20;7.20;;;1.90;74.80;;;;;;5054484;28;20052;-45
2021/12/01 02:06:03;;;;;;;14.27;8.52;;;1.90;74.80;;;;;;5056299;28;20033;-34
2021/12/01 02:08:30;;;;;;;13.30;8.30;;;2.00;74.70;;;;;;5055184;28;20025;-45
2021/12/01 02:10:58;;;;;;;13.50;8.25;;;1.90;74.70;;;;;;5056301;28;20033;-44
2021/12/01 02:13:24;;;;;;;14.60;7.78;;;2.00;74.70;;;;;;5055716;28;20032;-45
2021/12/01 02:15:52;;;;;;;12.32;7.97;;;2.00;74.70;;;;;;5055874;28;20329;-45
2021/12/01 02:18:19;;;;;;;15.95;9.00;;;2.00;74.60;;;;;;5055587;28;20024;-33
2021/12/01 02:21:36;;;;;;;14.15;8.32;;;2.00;74.50;;;;;;5056079;28;20068;-44
2021/12/01 02:24:11;;;;;;;15.45;8.98;;;2.10;74.50;;;;;;5054563;28;20037;-32
2021/12/01 02:26:46;;;;;;;14.32;8.43;;;2.10;74.50;;;;;;5055404;28;20113;-34
2021/12/01 02:29:15;;;;;;;15.98;8.63;;;2.10;74.40;;;;;;5055951;28;20033;-33
2021/12/01 02:31:43;;;;;;;14.13;7.97;;;2.10;73.90;;;;;;5055529;28;20025;-34
2021/12/01 02:34:16;;;;;;;14.98;8.20;;;2.10;73.80;;;;;;5056069;28;20110;-33
2021/12/01 02:36:42;;;;;;;11.63;7.30;;;2.10;73.50;;;;;;5055715;28;20317;-45
2021/12/01 02:39:11;;;;;;;14.80;8.55;;;2.10;73.30;;;;;;5055846;28;20036;-32
2021/12/01 02:41:37;;;;;;;15.10;7.85;;;2.20;73.30;;;;;;5055616;28;20098;-34
2021/12/01 02:44:06;;;;;;;13.63;7.82;;;2.20;73.30;;;;;;5058946;28;20033;-32
2021/12/01 02:46:34;;;;;;;15.52;8.98;;;2.20;73.20;;;;;;5059471;28;20087;-33
2021/12/01 02:49:00;;;;;;;17.42;9.15;;;2.20;73.10;;;;;;5059647;28;20056;-36
2021/12/01 02:51:31;;;;;;;16.48;8.80;;;2.20;73.10;;;;;;5059552;28;20090;-45
2021/12/01 02:53:58;;;;;;;15.27;8.70;;;2.30;73.10;;;;;;5058480;28;20029;-45
2021/12/01 02:56:24;;;;;;;14.93;8.25;;;2.30;73.00;;;;;;5059336;28;20036;-44
2021/12/01 02:58:51;;;;;;;15.57;9.00;;;2.30;73.00;;;;;;5059246;28;20052;-33
2021/12/01 03:01:24;;;;;;;13.93;8.45;;;2.30;73.00;;;;;;5059703;28;20025;-45
2021/12/01 03:03:52;;;;;;;14.80;7.93;;;2.30;72.90;;;;;;5059135;28;20029;-40
2021/12/01 03:06:19;;;;;;;15.75;8.43;;;2.30;72.80;;;;;;5059302;28;20021;-45
2021/12/01 03:08:46;;;;;;;14.65;8.23;;;2.30;72.70;;;;;;5058984;28;20433;-33
2021/12/01 03:11:12;;;;;;;11.82;7.20;;;2.40;72.50;;;;;;5059788;28;20480;-45
2021/12/01 03:13:38;;;;;;;12.75;7.93;;;2.40;72.50;;;;;;5059129;28;20033;-45
2021/12/01 03:16:04;;;;;;;12.45;7.70;;;2.40;72.40;;;;;;5059498;28;20481;-45
2021/12/01 03:18:30;;;;;;;14.85;7.95;;;2.40;72.30;;;;;;5058692;28;20144;-45
2021/12/01 03:20:57;;;;;;;14.18;7.57;;;2.40;71.90;;;;;;5057975;28;20037;-45
2021/12/01 03:23:24;;;;;;;13.00;7.90;;;2.40;71.80;;;;;;5058577;28;20423;-44
2021/12/01 03:25:50;;;;;;;11.95;7.55;;;2.40;71.60;;;;;;5059131;28;20028;-45
2021/12/01 03:28:16;;;;;;;12.50;7.30;;;2.40;71.40;;;;;;5058756;28;20032;-34
2021/12/01 03:30:42;;;;;;;14.73;7.47;;;2.40;71.30;;;;;;5059231;28;20029;-45
2021/12/01 03:33:11;;;;;;;10.88;6.80;;;2.40;71.30;;;;;;5058694;28;20021;-45
2021/12/01 03:35:39;;;;;;;13.30;7.15;;;2.40;71.30;;;;;;5059254;28;20364;-33
2021/12/01 03:38:06;;;;;;;13.80;7.47;;;2.40;71.20;;;;;;5058588;28;20029;-44
2021/12/01 03:40:32;;;;;;;11.80;7.30;;;2.40;71.00;;;;;;5059041;28;20030;-45
2021/12/01 03:42:58;;;;;;;13.10;6.85;;;2.40;70.90;;;;;;5058716;28;20090;-44
2021/12/01 03:45:24;;;;;;;24.85;7.93;;;2.30;70.90;;;;;;5058665;28;20040;-45
2021/12/01 03:47:49;;;;;;;11.55;7.25;;;2.30;71.00;;;;;;5058223;28;20302;-33
2021/12/01 03:50:15;;;;;;;15.50;7.88;;;2.30;71.00;;;;;;5058849;28;20380;-33
2021/12/01 03:52:41;;;;;;;17.02;7.82;;;2.30;71.20;;;;;;5058238;28;20172;-36
2021/12/01 03:55:08;;;;;;;11.60;6.78;;;2.20;71.10;;;;;;5057916;28;20409;-45
2021/12/01 03:57:34;;;;;;;11.05;6.38;;;2.20;71.10;;;;;;5058226;28;20063;-33
2021/12/01 04:00:00;;;;;;;10.48;7.03;;;2.20;71.10;;;;;;5058607;28;20113;-35
2021/12/01 04:02:27;;;;;;;10.50;6.72;;;2.20;71.10;;;;;;5058356;28;20163;-43
2021/12/01 04:04:52;;;;;;;10.15;6.50;;;2.20;71.20;;;;;;5058655;28;20456;-33
2021/12/01 04:07:18;;;;;;;13.68;6.30;;;2.20;71.30;;;;;;5058007;28;20025;-45
2021/12/01 04:09:45;;;;;;;12.43;7.05;;;2.30;71.10;;;;;;5057931;28;20048;-45
2021/12/01 04:12:11;;;;;;;12.63;7.03;;;2.30;71.00;;;;;;5057782;28;20025;-45
2021/12/01 04:14:37;;;;;;;11.45;6.63;;;2.30;71.00;;;;;;5058340;28;20032;-45
2021/12/01 04:17:03;;;;;;;10.93;6.25;;;2.30;71.10;;;;;;5057799;28;20037;-34
2021/12/01 04:19:29;;;;;;;12.80;7.00;;;2.30;71.20;;;;;;5058317;28;20388;-32
2021/12/01 04:21:55;;;;;;;13.70;6.20;;;2.30;71.30;;;;;;5057699;28;20115;-33
2021/12/01 04:24:21;;;;;;;14.85;7.10;;;2.30;71.70;;;;;;5058017;28;20090;-33
2021/12/01 04:26:47;;;;;;;12.43;6.68;;;2.40;72.60;;;;;;5057728;28;20037;-34
2021/12/01 04:29:13;;;;;;;13.60;6.50;;;2.30;72.60;;;;;;5057997;28;20028;-37
2021/12/01 04:31:40;;;;;;;14.13;6.93;;;2.30;73.00;;;;;;5058084;28;20328;-38
2021/12/01 04:34:07;;;;;;;11.90;6.90;;;2.30;73.30;;;;;;5057903;28;20025;-45
2021/12/01 04:36:36;;;;;;;12.95;7.47;;;2.30;73.70;;;;;;5057573;28;20041;-45
2021/12/01 04:39:05;;;;;;;12.40;6.45;;;2.30;74.10;;;;;;5057948;28;20036;-33
2021/12/01 04:41:36;;;;;;;13.45;6.90;;;2.30;74.70;;;;;;5057305;28;20037;-45
2021/12/01 04:44:08;;;;;;;12.73;6.85;;;2.20;75.50;;;;;;5057758;28;20032;-34
2021/12/01 04:46:40;;;;;;;11.57;6.97;;;2.20;76.20;;;;;;5057403;28;20330;-33
2021/12/01 04:49:07;;;;;;;15.43;8.73;;;2.10;76.30;;;;;;5057348;28;20021;-34
2021/12/01 04:51:33;;;;;;;13.23;6.97;;;2.10;77.00;;;;;;5057113;28;20045;-33
2021/12/01 04:53:59;;;;;;;10.50;6.53;;;2.10;77.10;;;;;;5057373;28;20028;-33
2021/12/01 04:56:25;;;;;;;12.48;7.32;;;2.10;77.60;;;;;;5057645;28;20116;-34
2021/12/01 04:58:50;;;;;;;13.25;7.80;;;2.00;78.20;;;;;;5057031;28;20417;-45
2021/12/01 05:01:17;;;;;;;13.93;6.97;;;2.00;78.90;;;;;;5057502;28;20082;-33
2021/12/01 05:03:43;;;;;;;12.82;7.32;;;1.90;79.00;;;;;;5056921;28;20029;-45
2021/12/01 05:06:12;;;;;;;13.27;6.82;;;1.90;79.10;;;;;;5056848;28;20043;-33
2021/12/01 05:08:38;;;;;;;16.75;7.90;;;1.90;79.60;;;;;;5056459;28;20044;-44
2021/12/01 05:11:04;;;;;;;14.15;8.00;;;1.90;79.70;;;;;;5056907;28;20039;-33
2021/12/01 05:13:30;;;;;;;29.45;13.85;;;1.90;80.00;;;;;;5056432;28;20452;-46
2021/12/01 05:15:56;;;;;;;15.18;8.48;;;1.90;80.40;;;;;;5057104;28;20025;-46
2021/12/01 05:18:21;;;;;;;18.05;9.10;;;1.90;80.90;;;;;;5056572;28;20025;-45
2021/12/01 05:20:47;;;;;;;17.70;9.35;;;1.90;80.80;;;;;;5057020;28;20320;-34
2021/12/01 05:23:15;;;;;;;16.65;8.73;;;1.90;81.10;;;;;;5056425;28;20443;-46
2021/12/01 05:25:42;;;;;;;21.08;10.35;;;1.90;81.40;;;;;;5057047;28;20464;-48
2021/12/01 05:28:08;;;;;;;14.63;8.13;;;1.90;81.80;;;;;;5056501;28;20045;-48
2021/12/01 05:30:34;;;;;;;13.30;8.07;;;1.90;82.20;;;;;;5056842;28;20025;-48
2021/12/01 05:33:05;;;;;;;13.02;7.75;;;1.80;82.20;;;;;;5056447;28;20021;-48
2021/12/01 05:35:31;;;;;;;15.05;9.43;;;1.80;82.70;;;;;;5056817;28;20410;-46
2021/12/01 05:37:57;;;;;;;16.42;8.60;;;1.80;83.00;;;;;;5056075;28;20162;-48
2021/12/01 05:40:23;;;;;;;16.58;8.95;;;1.80;83.50;;;;;;5056355;28;20124;-36
2021/12/01 05:42:49;;;;;;;26.08;11.77;;;1.80;83.40;;;;;;5055845;28;20032;-48
2021/12/01 05:45:15;;;;;;;15.63;9.60;;;1.80;83.70;;;;;;5056444;28;20036;-35
2021/12/01 05:47:41;;;;;;;14.85;8.68;;;1.80;83.70;;;;;;5056122;28;20110;-48
2021/12/01 05:50:07;;;;;;;17.55;9.98;;;1.80;83.80;;;;;;5056490;28;20352;-33
2021/12/01 05:52:33;;;;;;;15.70;8.57;;;1.80;84.00;;;;;;5056021;28;20029;-33
2021/12/01 05:54:59;;;;;;;15.57;7.82;;;1.90;84.10;;;;;;5054843;28;20524;-33
2021/12/01 05:57:25;;;;;;;16.00;9.30;;;1.90;84.10;;;;;;5055764;28;20325;-37
2021/12/01 05:59:50;;;;;;;18.55;9.15;;;1.90;84.30;;;;;;5055960;28;20029;-34
2021/12/01 06:02:16;;;;;;;15.23;8.35;;;1.90;84.30;;;;;;5055780;28;20483;-45
2021/12/01 06:04:42;;;;;;;17.55;8.98;;;1.90;84.30;;;;;;5056071;28;20029;-34
2021/12/01 06:07:08;;;;;;;13.82;8.73;;;1.90;84.60;;;;;;5055344;28;20040;-32
2021/12/01 06:09:34;;;;;;;15.60;9.07;;;1.90;84.70;;;;;;5055263;28;20045;-46
2021/12/01 06:12:00;;;;;;;16.17;9.00;;;1.90;84.80;;;;;;5055256;28;20091;-34
2021/12/01 06:14:27;;;;;;;16.17;8.45;;;1.90;85.00;;;;;;5055443;28;20029;-46
2021/12/01 06:16:53;;;;;;;16.42;8.00;;;2.00;85.10;;;;;;5055275;28;20104;-46
2021/12/01 06:19:19;;;;;;;19.33;10.93;;;2.00;85.00;;;;;;5055342;28;20456;-33
2021/12/01 06:21:45;;;;;;;16.25;8.50;;;2.00;85.20;;;;;;5055244;28;20104;-33
2021/12/01 06:24:11;;;;;;;15.98;9.13;;;2.00;85.40;;;;;;5055775;28;20187;-46
2021/12/01 06:26:37;;;;;;;18.73;10.35;;;2.00;85.50;;;;;;5053983;28;20521;-34
2021/12/01 06:29:04;;;;;;;17.42;10.13;;;2.00;85.60;;;;;;5055581;28;20033;-46
2021/12/01 06:31:30;;;;;;;24.77;12.05;;;2.00;85.60;;;;;;5055251;28;20037;-46
2021/12/01 06:33:58;;;;;;;23.33;12.43;;;2.00;85.60;;;;;;5055328;28;20102;-37
2021/12/01 06:36:24;;;;;;;18.58;11.75;;;2.10;85.80;;;;;;5055720;28;20091;-46
2021/12/01 06:38:50;;;;;;;19.42;11.65;;;2.10;85.90;;;;;;5055223;28;20029;-46
2021/12/01 06:41:16;;;;;;;19.13;11.77;;;2.10;86.00;;;;;;5055242;28;20036;-45
2021/12/01 06:43:41;;;;;;;25.70;11.73;;;2.10;85.70;;;;;;5055010;28;20040;-34
2021/12/01 06:46:07;;;;;;;18.98;10.68;;;2.20;85.80;;;;;;5055453;28;20032;-34
2021/12/01 06:48:33;;;;;;;19.92;10.60;;;2.20;85.80;;;;;;5054919;28;20352;-46
2021/12/01 06:50:59;;;;;;;28.85;14.23;;;2.20;85.70;;;;;;5055258;28;20385;-34
2021/12/01 06:53:26;;;;;;;18.33;10.70;;;2.20;85.80;;;;;;5054998;28;20021;-34
2021/12/01 06:55:55;;;;;;;21.17;10.93;;;2.20;85.90;;;;;;5055213;28;20029;-46
2021/12/01 06:58:21;;;;;;;19.30;10.77;;;2.30;85.80;;;;;;5054640;28;20017;-34
2021/12/01 07:00:47;;;;;;;21.42;11.48;;;2.30;85.60;;;;;;5055648;28;20298;-33
2021/12/01 07:03:12;;;;;;;21.15;10.52;;;2.30;85.80;;;;;;5054778;28;20040;-46
2021/12/01 07:05:38;;;;;;;21.55;10.88;;;2.40;85.70;;;;;;5055684;28;20096;-34
2021/12/01 07:08:05;;;;;;;19.85;11.25;;;2.40;85.60;;;;;;5054834;28;20401;-35
2021/12/01 07:10:31;;;;;;;16.45;9.68;;;2.40;85.20;;;;;;5054528;28;20048;-33
2021/12/01 07:12:57;;;;;;;21.35;10.38;;;2.50;85.00;;;;;;5054655;28;20021;-35
2021/12/01 07:15:22;;;;;;;17.50;9.48;;;2.50;84.90;;;;;;5055278;28;20029;-35
2021/12/01 07:17:48;;;;;;;18.42;9.82;;;2.50;85.00;;;;;;5054633;28;20044;-46
2021/12/01 07:20:15;;;;;;;16.05;10.07;;;2.60;84.70;;;;;;5055301;28;20044;-46
2021/12/01 07:22:44;;;;;;;16.02;9.38;;;2.60;84.80;;;;;;5054954;28;20033;-46
2021/12/01 07:25:11;;;;;;;17.38;10.13;;;2.60;84.80;;;;;;5055178;28;20622;-46
2021/12/01 07:27:37;;;;;;;14.45;9.63;;;2.70;84.70;;;;;;5054693;28;20445;-33
2021/12/01 07:30:04;;;;;;;18.63;10.77;;;2.70;84.60;;;;;;5056519;28;20029;-33
2021/12/01 07:32:29;;;;;;;18.40;10.82;;;2.70;84.50;;;;;;5058081;28;20091;-34
2021/12/01 07:34:56;;;;;;;17.75;10.30;;;2.80;84.50;;;;;;5058844;28;20017;-46
2021/12/01 07:37:22;;;;;;;18.63;9.93;;;2.80;84.50;;;;;;5058246;28;20112;-34
2021/12/01 07:39:48;;;;;;;24.88;13.57;;;2.90;84.30;;;;;;5056980;28;20044;-35
2021/12/01 07:42:15;;;;;;;26.55;15.30;;;2.90;84.40;;;;;;5058282;28;20044;-34
2021/12/01 07:44:41;;;;;;;17.77;10.50;;;3.00;84.40;;;;;;5058578;28;20055;-46
2021/12/01 07:47:08;;;;;;;18.63;9.27;;;3.10;84.00;;;;;;5057957;28;20090;-47
2021/12/01 07:49:35;;;;;;;16.65;10.05;;;3.10;83.60;;;;;;5058414;28;20032;-46
2021/12/01 07:52:03;;;;;;;16.02;9.80;;;3.10;83.60;;;;;;5057975;28;20033;-46
2021/12/01 07:54:29;;;;;;;19.98;11.30;;;3.10;83.60;;;;;;5058158;28;20027;-43
2021/12/01 07:56:55;;;;;;;20.20;10.43;;;3.20;83.70;;;;;;5057998;28;20025;-46
2021/12/01 07:59:21;;;;;;;17.60;10.25;;;3.20;83.70;;;;;;5058195;28;20032;-34
2021/12/01 08:01:47;;;;;;;20.95;11.82;;;3.20;83.70;;;;;;5057769;28;20040;-46
2021/12/01 08:04:12;;;;;;;20.80;10.80;;;3.20;84.00;;;;;;5057714;28;20147;-46
2021/12/01 08:06:39;;;;;;;18.02;10.30;;;3.30;84.10;;;;;;5057530;28;20037;-36
2021/12/01 08:09:06;;;;;;;20.08;12.20;;;3.30;84.00;;;;;;5057382;28;20053;-34
2021/12/01 08:11:34;;;;;;;20.15;11.65;;;3.30;83.80;;;;;;5057819;28;20083;-46
2021/12/01 08:14:00;;;;;;;23.13;11.43;;;3.40;84.10;;;;;;5055841;28;20027;-34
2021/12/01 08:16:26;;;;;;;17.50;9.98;;;3.40;84.10;;;;;;5050824;28;20025;-35
2021/12/01 08:18:53;;;;;;;20.15;11.27;;;3.40;84.00;;;;;;5037599;28;20053;-46
2021/12/01 08:21:20;;;;;;;20.33;11.60;;;3.50;84.00;;;;;;5037449;28;20441;-35
2021/12/01 08:23:46;;;;;;;20.58;11.45;;;3.50;84.20;;;;;;5037404;28;20025;-34
2021/12/01 08:26:12;;;;;;;27.00;15.30;;;3.50;83.90;;;;;;5039787;28;20436;-36
2021/12/01 08:28:38;;;;;;;17.52;9.95;;;3.60;83.80;;;;;;5056882;28;20465;-47
2021/12/01 08:31:04;;;;;;;22.23;12.98;;;3.60;83.70;;;;;;5057182;28;20029;-47
2021/12/01 08:33:29;;;;;;;22.02;10.75;;;3.60;83.30;;;;;;5056798;28;20313;-47
2021/12/01 08:35:55;;;;;;;18.63;10.60;;;3.60;83.20;;;;;;5057444;28;20025;-36
2021/12/01 08:38:21;;;;;;;21.17;12.00;;;3.70;83.30;;;;;;5056502;28;20047;-47
2021/12/01 08:40:46;;;;;;;18.45;10.40;;;3.70;83.50;;;;;;5057060;28;20029;-34
2021/12/01 08:43:12;;;;;;;23.40;11.90;;;3.70;83.60;;;;;;5057038;28;20028;-48
2021/12/01 08:45:38;;;;;;;21.73;12.02;;;3.80;83.60;;;;;;5057433;28;20031;-37
2021/12/01 08:48:05;;;;;;;21.40;11.77;;;3.80;83.40;;;;;;5056698;28;20033;-37
2021/12/01 08:50:31;;;;;;;17.83;10.05;;;3.80;83.00;;;;;;5057051;28;20041;-36
2021/12/01 08:52:58;;;;;;;24.42;12.18;;;3.80;82.70;;;;;;5057185;28;20102;-34
2021/12/01 08:55:23;;;;;;;16.48;10.68;;;3.80;82.70;;;;;;5057103;28;20305;-47
2021/12/01 08:57:51;;;;;;;21.15;10.65;;;3.80;82.90;;;;;;5056586;28;20028;-39
2021/12/01 09:00:18;;;;;;;20.58;11.25;;;3.90;83.00;;;;;;5056871;28;20095;-47
2021/12/01 09:02:44;;;;;;;19.58;11.48;;;3.90;83.10;;;;;;5056534;28;20321;-46
2021/12/01 09:05:10;;;;;;;21.38;12.13;;;3.90;83.20;;;;;;5056823;28;20028;-34
2021/12/01 09:07:36;;;;;;;24.88;13.50;;;4.00;83.30;;;;;;5056144;28;20079;-34
2021/12/01 09:10:04;;;;;;;20.52;11.93;;;4.00;83.60;;;;;;5056653;28;20048;-34
2021/12/01 09:12:29;;;;;;;20.20;11.15;;;4.10;83.60;;;;;;5056134;28;20045;-47
2021/12/01 09:14:57;;;;;;;21.70;11.20;;;4.10;82.90;;;;;;5056899;28;20079;-34
2021/12/01 09:17:23;;;;;;;20.70;11.18;;;4.10;82.60;;;;;;5053762;28;20076;-36
2021/12/01 09:19:50;;;;;;;20.77;12.00;;;4.10;82.50;;;;;;5056661;28;20029;-34
2021/12/01 09:22:17;;;;;;;20.00;11.35;;;4.20;82.60;;;;;;5055970;28;20059;-35
2021/12/01 09:24:43;;;;;;;19.17;10.88;;;4.20;82.60;;;;;;5056318;28;20075;-47
2021/12/01 09:27:09;;;;;;;20.67;10.68;;;4.20;82.60;;;;;;5055963;28;20434;-47
2021/12/01 09:29:35;;;;;;;19.63;11.43;;;4.30;82.70;;;;;;5056617;28;20413;-45
2021/12/01 09:32:01;;;;;;;21.75;11.68;;;4.30;82.70;;;;;;5055727;28;20130;-47
2021/12/01 09:34:27;;;;;;;20.13;10.93;;;4.30;82.60;;;;;;5056474;28;20100;-34
2021/12/01 09:36:53;;;;;;;19.73;10.70;;;4.40;82.30;;;;;;5055703;28;20124;-47
2021/12/01 09:39:20;;;;;;;23.35;10.82;;;4.40;82.10;;;;;;5055897;28;20108;-47
2021/12/01 09:41:47;;;;;;;14.98;9.05;;;4.40;82.00;;;;;;5055945;28;20144;-47
2021/12/01 09:44:13;;;;;;;14.57;9.05;;;4.40;81.70;;;;;;5056255;28;20036;-42
2021/12/01 09:46:38;;;;;;;14.55;8.93;;;4.40;81.60;;;;;;5055631;28;20021;-35
2021/12/01 09:49:04;;;;;;;14.57;8.13;;;4.40;81.60;;;;;;5055938;28;20029;-47
2021/12/01 09:51:30;;;;;;;13.05;8.10;;;4.40;81.60;;;;;;5055955;28;20539;-34
2021/12/01 09:53:57;;;;;;;12.70;7.93;;;4.50;81.50;;;;;;5055141;28;20028;-46
2021/12/01 09:56:25;;;;;;;12.98;7.80;;;4.50;81.50;;;;;;5056197;28;20083;-47
2021/12/01 09:58:50;;;;;;;12.23;8.00;;;4.50;81.30;;;;;;5055489;28;20338;-37
2021/12/01 10:01:19;;;;;;;10.32;7.35;;;4.60;81.40;;;;;;5055539;28;20116;-47
2021/12/01 10:03:46;;;;;;;10.63;7.43;;;4.60;80.90;;;;;;5055278;28;20028;-46
2021/12/01 10:06:15;;;;;;;13.75;7.70;;;4.60;80.90;;;;;;5055606;28;20498;-41
2021/12/01 10:08:44;;;;;;;11.00;6.78;;;4.70;80.70;;;;;;5055390;28;20116;-34
2021/12/01 10:11:16;;;;;;;11.07;6.60;;;4.70;80.80;;;;;;5055755;28;20145;-34
2021/12/01 10:13:55;;;;;;;9.30;6.55;;;4.80;80.40;;;;;;5055006;28;20402;-47
2021/12/01 10:16:24;;;;;;;10.30;6.18;;;4.80;80.10;;;;;;5055480;28;20024;-47
2021/12/01 10:18:55;;;;;;;10.23;5.93;;;4.80;79.80;;;;;;5055416;28;20037;-47
2021/12/01 10:21:33;;;;;;;10.93;6.82;;;4.80;79.40;;;;;;5055678;28;20036;-33
2021/12/01 10:24:03;;;;;;;9.50;6.68;;;4.80;79.30;;;;;;5055159;28;20041;-34
2021/12/01 10:26:31;;;;;;;8.35;6.03;;;4.80;79.50;;;;;;5055443;28;20104;-46
2021/12/01 10:29:05;;;;;;;10.35;6.38;;;4.80;79.60;;;;;;5055338;28;20035;-46
2021/12/01 10:31:34;;;;;;;8.68;6.22;;;4.90;79.40;;;;;;5055347;28;20032;-47
2021/12/01 10:34:21;;;;;;;9.75;7.05;;;4.90;79.10;;;;;;5056006;28;20029;-38
2021/12/01 10:36:49;;;;;;;9.80;6.60;;;4.90;78.50;;;;;;5055140;28;20414;-36
2021/12/01 10:39:16;;;;;;;11.48;6.93;;;4.90;78.50;;;;;;5055625;28;20053;-46
2021/12/01 10:41:43;;;;;;;9.63;6.88;;;4.90;78.60;;;;;;5055372;28;20076;-34
2021/12/01 10:44:17;;;;;;;12.40;7.18;;;4.90;78.70;;;;;;5055517;28;20041;-34
2021/12/01 10:46:47;;;;;;;8.95;6.55;;;4.90;78.80;;;;;;5055262;28;20036;-34
2021/12/01 10:49:13;;;;;;;9.73;6.28;;;4.90;78.50;;;;;;5055603;28;20308;-34
2021/12/01 10:51:41;;;;;;;11.30;6.85;;;4.90;78.50;;;;;;5054478;28;20174;-31
2021/12/01 10:54:20;;;;;;;8.45;6.57;;;4.90;78.70;;;;;;5055550;28;20052;-40
2021/12/01 10:57:17;;;;;;;8.60;5.97;;;4.90;78.40;;;;;;5055445;28;20318;-37
2021/12/01 10:59:45;;;;;;;10.25;6.22;;;5.00;78.30;;;;;;5055607;28;20074;-32
2021/12/01 11:02:11;;;;;;;9.93;6.18;;;5.00;78.20;;;;;;5053984;28;20460;-31
2021/12/01 11:04:47;;;;;;;10.40;6.68;;;5.10;78.10;;;;;;5057636;28;20405;-31
2021/12/01 11:07:31;;;;;;;14.75;6.88;;;5.00;78.00;;;;;;5058544;28;20044;-31
2021/12/01 11:10:18;;;;;;;7.90;5.72;;;5.10;78.10;;;;;;5059105;28;20111;-40
2021/12/01 11:12:53;;;;;;;9.75;6.70;;;5.10;77.30;;;;;;5059444;28;20120;-32
2021/12/01 11:15:41;;;;;;;10.05;6.53;;;5.10;77.20;;;;;;5057997;28;20029;-32
2021/12/01 11:18:08;;;;;;;9.18;6.47;;;5.10;77.20;;;;;;5059224;28;20036;-31
2021/12/01 11:20:42;;;;;;;9.18;5.88;;;5.10;76.80;;;;;;5059178;28;20393;-31
2021/12/01 11:23:15;;;;;;;8.60;6.22;;;5.10;76.80;;;;;;5059036;28;20032;-40
2021/12/01 11:25:43;;;;;;;10.35;6.72;;;5.10;76.40;;;;;;5059263;28;20078;-31
2021/12/01 11:28:14;;;;;;;8.65;5.97;;;5.10;76.40;;;;;;5058777;28;20032;-40
2021/12/01 11:30:42;;;;;;;;;;;5.10;76.30;;;;;;5059372;28;20032;-40
2021/12/01 11:33:13;;;;;;;8.48;5.82;;;5.10;76.70;;;;;;5059009;28;19909;-40
2021/12/01 11:35:41;;;;;;;8.27;5.93;;;5.10;76.70;;;;;;5059063;28;20259;-39
2021/12/01 11:38:08;;;;;;;8.88;5.93;;;5.10;76.40;;;;;;5058488;28;20108;-32
2021/12/01 11:40:35;;;;;;;9.40;7.22;;;5.10;76.30;;;;;;5058724;28;20469;-32
2021/12/01 11:43:01;;;;;;;10.13;6.85;;;5.10;76.30;;;;;;5058666;28;20074;-33
2021/12/01 11:45:26;;;;;;;10.85;6.93;;;5.10;76.70;;;;;;5058732;28;20021;-32
2021/12/01 11:47:53;;;;;;;8.77;6.43;;;5.10;76.30;;;;;;5058371;28;20036;-40
2021/12/01 11:50:32;;;;;;;11.43;7.30;;;5.10;76.00;;;;;;5058836;28;20305;-31
2021/12/01 11:53:00;;;;;;;11.45;6.55;;;5.10;75.90;;;;;;5058312;28;20070;-32
2021/12/01 11:55:49;;;;;;;11.32;7.20;;;5.10;76.00;;;;;;5058480;28;20040;-40
2021/12/01 11:59:13;;;;;;;11.98;7.57;;;5.10;75.80;;;;;;5058145;28;20090;-40
2021/12/01 12:02:04;;;;;;;11.52;7.43;;;5.20;76.10;;;;;;5045461;28;20045;-32
2021/12/01 12:04:47;;;;;;;12.63;8.02;;;5.20;76.00;;;;;;5055856;28;20040;-32
2021/12/01 12:07:21;;;;;;;11.57;7.97;;;5.10;75.80;;;;;;5057834;28;20041;-32
2021/12/01 12:10:16;;;;;;;13.20;8.50;;;5.20;75.90;;;;;;5057840;28;20392;-40
2021/12/01 12:12:43;;;;;;;12.95;8.02;;;5.10;75.50;;;;;;5057668;28;20040;-32
2021/12/01 12:15:09;;;;;;;12.60;8.52;;;5.10;75.30;;;;;;5057784;28;20056;-32
2021/12/01 12:17:35;;;;;;;11.52;8.30;;;5.10;75.60;;;;;;5057711;28;20045;-32
2021/12/01 12:20:08;;;;;;;12.43;8.18;;;5.10;75.60;;;;;;5058226;28;20025;-32
2021/12/01 12:25:02;;;;;;;12.18;8.60;;;5.10;75.50;;;;;;5058111;28;20067;-31
2021/12/01 12:27:45;;;;;;;13.75;8.75;;;5.10;75.40;;;;;;5057822;28;20352;-40
2021/12/01 12:30:19;;;;;;;11.45;8.35;;;5.10;75.20;;;;;;5057877;28;20033;-39
2021/12/01 12:32:46;;;;;;;13.27;9.23;;;5.10;75.10;;;;;;5057394;28;20029;-31
2021/12/01 12:35:16;;;;;;;13.13;8.90;;;5.10;75.00;;;;;;5057796;28;20407;-40
2021/12/01 12:37:43;;;;;;;14.65;9.65;;;5.00;74.90;;;;;;5057379;28;20235;-31
2021/12/01 12:40:23;;;;;;;13.40;8.40;;;5.00;75.10;;;;;;5057721;28;20048;-40
2021/12/01 12:43:21;;;;;;;12.98;8.65;;;5.00;75.00;;;;;;5057643;28;20066;-31
2021/12/01 12:46:06;;;;;;;11.15;8.23;;;5.00;74.70;;;;;;5057532;28;20076;-32
2021/12/01 12:48:52;;;;;;;11.43;8.35;;;5.00;74.80;;;;;;5057223;28;20025;-40
2021/12/01 12:51:30;;;;;;;12.75;8.32;;;5.00;74.90;;;;;;5056808;28;20029;-40
2021/12/01 12:54:06;;;;;;;12.68;8.98;;;5.00;74.90;;;;;;5057098;28;20029;-31
2021/12/01 12:56:34;;;;;;;11.40;8.40;;;5.00;75.00;;;;;;5057370;28;20040;-31
2021/12/01 12:59:21;;;;;;;13.15;9.00;;;5.00;74.90;;;;;;5057177;28;20108;-40
2021/12/01 13:01:52;;;;;;;15.38;8.93;;;5.00;74.70;;;;;;5057073;28;20074;-31